createdAt,value
2023-02-11T00:01:41.848Z,-8.09
2023-02-11T00:06:45.784Z,-8.37
2023-02-11T00:11:49.889Z,-8.30
2023-02-11T00:16:55.238Z,-8.26
2023-02-11T00:21:59.783Z,-8.49
2023-02-11T00:27:03.867Z,-7.94
2023-02-11T00:32:09.212Z,-7.93
2023-02-11T00:37:13.784Z,-8.18
2023-02-11T00:42:19.156Z,-7.94
2023-02-11T00:47:25.682Z,-8.24
2023-02-11T00:52:29.895Z,-8.30
2023-02-11T00:57:33.677Z,-8.55
2023-02-11T01:02:38.966Z,-8.55
2023-02-11T01:07:42.864Z,-8.68
2023-02-11T01:12:46.820Z,-8.50
2023-02-11T01:17:52.374Z,-8.31
2023-02-11T01:22:57.081Z,-8.42
2023-02-11T01:28:01.019Z,-8.40
2023-02-11T01:33:08.696Z,-8.78
2023-02-11T01:38:17.762Z,-8.76
2023-02-11T01:43:23.253Z,-8.67
2023-02-11T01:48:33.866Z,-8.46
2023-02-11T01:53:57.070Z,-8.68
2023-02-11T01:59:08.771Z,-9.21
2023-02-11T02:04:19.179Z,-9.11
2023-02-11T02:09:27.721Z,-8.82
2023-02-11T02:14:31.657Z,-9.27
2023-02-11T02:20:16.354Z,-9.53
2023-02-11T02:25:46.341Z,-9.24
2023-02-11T02:31:22.211Z,-9.40
2023-02-11T02:36:36.235Z,-9.67
2023-02-11T02:41:41.581Z,-9.59
2023-02-11T02:46:45.506Z,-9.73
2023-02-11T02:52:17.489Z,-9.64
2023-02-11T02:57:32.129Z,-9.73
2023-02-11T03:02:43.210Z,-9.63
2023-02-11T03:07:56.928Z,-9.67
2023-02-11T03:13:02.138Z,-9.69
2023-02-11T03:18:08.616Z,-9.69
2023-02-11T03:23:19.411Z,-9.72
2023-02-11T03:28:32.438Z,-9.52
2023-02-11T03:33:41.979Z,-9.49
2023-02-11T03:38:51.774Z,-9.53
2023-02-11T03:43:58.318Z,-9.30
2023-02-11T03:49:06.193Z,-9.19
2023-02-11T03:54:21.008Z,-9.06
2023-02-11T03:59:25.057Z,-9.18
2023-02-11T04:04:29.131Z,-9.56
2023-02-11T04:09:35.396Z,-9.42
2023-02-11T04:14:39.344Z,-9.40
2023-02-11T04:19:43.315Z,-9.52
2023-02-11T04:24:48.618Z,-9.40
2023-02-11T04:29:52.630Z,-9.29
2023-02-11T04:34:56.694Z,-9.21
2023-02-11T04:40:02.024Z,-9.73
2023-02-11T04:45:07.899Z,-9.75
2023-02-11T04:50:12.070Z,-9.75
2023-02-11T04:55:17.596Z,-9.40
2023-02-11T05:00:21.850Z,-9.75
2023-02-11T05:05:25.937Z,-9.78
2023-02-11T05:10:31.262Z,-9.72
2023-02-11T05:15:35.170Z,-9.68
2023-02-11T05:20:39.604Z,-9.52
2023-02-11T05:25:44.900Z,-9.76
2023-02-11T05:30:48.836Z,-9.37
2023-02-11T05:35:53.020Z,-9.34
2023-02-11T05:40:58.471Z,-9.80
2023-02-11T05:46:02.806Z,-9.75
2023-02-11T05:51:06.980Z,-9.29
2023-02-11T05:56:12.559Z,-8.99
2023-02-11T06:01:16.610Z,-8.60
2023-02-11T06:06:20.547Z,-8.79
2023-02-11T06:11:25.810Z,-8.80
2023-02-11T06:16:29.809Z,-8.26
2023-02-11T06:21:43.219Z,-7.86
2023-02-11T06:26:49.344Z,-7.28
2023-02-11T06:31:53.357Z,-6.69
2023-02-11T06:36:57.333Z,-6.30
2023-02-11T06:42:02.621Z,-5.82
2023-02-11T06:47:06.629Z,-5.21
2023-02-11T06:52:10.548Z,-5.07
2023-02-11T06:57:15.832Z,-4.62
2023-02-11T07:02:21.022Z,-4.39
2023-02-11T07:07:25.323Z,-3.11
2023-02-11T07:12:30.656Z,-2.61
2023-02-11T07:17:36.078Z,-2.21
2023-02-11T07:22:39.947Z,-2.13
2023-02-11T07:27:45.274Z,-1.94
2023-02-11T07:32:49.203Z,-1.80
2023-02-11T07:37:53.844Z,-1.19
2023-02-11T07:42:59.133Z,-0.36
2023-02-11T07:48:03.110Z,-0.16
2023-02-11T07:53:07.026Z,-0.25
2023-02-11T07:58:12.336Z,-0.04
2023-02-11T08:03:16.226Z,0.19
2023-02-11T08:08:20.097Z,0.99
2023-02-11T08:13:26.977Z,1.14
2023-02-11T08:18:31.204Z,1.40
2023-02-11T08:23:37.687Z,1.19
2023-02-11T08:28:45.372Z,2.05
2023-02-11T08:33:49.679Z,1.63
2023-02-11T08:39:05.673Z,2.26
2023-02-11T08:44:17.964Z,2.26
2023-02-11T08:49:22.819Z,2.02
2023-02-11T08:54:26.734Z,2.81
2023-02-11T08:59:32.417Z,3.17
2023-02-11T09:04:36.354Z,2.16
2023-02-11T09:09:40.280Z,2.48
2023-02-11T09:14:45.600Z,3.46
2023-02-11T09:19:49.480Z,3.40
2023-02-11T09:24:53.413Z,4.23
2023-02-11T09:29:58.772Z,3.60
2023-02-11T09:35:02.726Z,4.51
2023-02-11T09:40:07.726Z,4.32
2023-02-11T09:45:18.753Z,4.43
2023-02-11T09:50:31.047Z,5.01
2023-02-11T09:55:39.525Z,4.30
2023-02-11T10:00:50.004Z,4.03
2023-02-11T10:06:23.962Z,4.89
2023-02-11T10:11:33.879Z,5.51
2023-02-11T10:16:52.960Z,5.50
2023-02-11T10:22:08.000Z,5.69
2023-02-11T10:27:18.581Z,5.03
2023-02-11T10:32:37.161Z,5.91
2023-02-11T10:37:43.543Z,5.79
2023-02-11T10:42:55.384Z,6.43
2023-02-11T10:48:01.692Z,6.37
2023-02-11T10:53:20.624Z,6.26
2023-02-11T10:58:27.594Z,4.87
2023-02-11T11:03:39.195Z,5.98
2023-02-11T11:08:46.203Z,5.51
2023-02-11T11:13:58.120Z,5.67
2023-02-11T11:19:23.495Z,6.57
2023-02-11T11:24:30.505Z,6.39
2023-02-11T11:29:38.084Z,7.06
2023-02-11T11:34:45.130Z,7.33
2023-02-11T11:39:57.040Z,7.58
2023-02-11T11:45:02.724Z,7.79
2023-02-11T11:50:23.260Z,8.36
2023-02-11T11:55:32.697Z,7.59
2023-02-11T12:00:44.378Z,7.04
2023-02-11T12:06:00.144Z,7.08
2023-02-11T12:11:13.485Z,7.68
2023-02-11T12:16:27.102Z,7.88
2023-02-11T12:21:42.082Z,7.82
2023-02-11T12:26:50.932Z,7.23
2023-02-11T12:32:14.737Z,7.92
2023-02-11T12:37:36.001Z,8.51
2023-02-11T12:43:18.425Z,7.79
2023-02-11T12:48:52.570Z,8.61
2023-02-11T12:54:18.230Z,7.49
2023-02-11T12:59:34.633Z,8.08
2023-02-11T13:04:42.114Z,6.73
2023-02-11T13:09:52.376Z,7.42
2023-02-11T13:14:59.738Z,7.96
2023-02-11T13:20:15.464Z,8.08
2023-02-11T13:25:29.733Z,7.65
2023-02-11T13:30:36.899Z,7.14
2023-02-11T13:35:42.576Z,7.98
2023-02-11T13:41:01.293Z,7.32
2023-02-11T13:46:10.163Z,6.66
2023-02-11T13:51:16.615Z,7.28
2023-02-11T13:56:32.446Z,7.55
2023-02-11T14:02:20.333Z,7.67
2023-02-11T14:07:47.110Z,7.34
2023-02-11T14:13:20.974Z,6.98
2023-02-11T14:19:01.882Z,6.69
2023-02-11T14:24:48.020Z,6.42
2023-02-11T14:30:04.415Z,6.92
2023-02-11T14:35:15.255Z,6.97
2023-02-11T14:40:28.852Z,5.59
2023-02-11T14:45:36.703Z,5.38
2023-02-11T14:50:44.711Z,4.70
2023-02-11T14:55:53.558Z,5.03
2023-02-11T15:01:01.884Z,5.02
2023-02-11T15:06:09.159Z,4.27
2023-02-11T15:11:15.386Z,3.47
2023-02-11T15:16:24.768Z,3.38
2023-02-11T15:21:31.249Z,2.21
2023-02-11T15:26:35.279Z,1.48
2023-02-11T15:31:40.748Z,1.11
2023-02-11T15:36:44.904Z,0.96
2023-02-11T15:41:48.868Z,0.67
2023-02-11T15:46:54.316Z,0.33
2023-02-11T15:51:59.025Z,0.46
2023-02-11T15:57:09.562Z,0.12
2023-02-11T16:02:19.743Z,-0.12
2023-02-11T16:07:44.705Z,-0.33
2023-02-11T16:13:19.170Z,-0.63
2023-02-11T16:18:39.373Z,-0.75
2023-02-11T16:23:45.010Z,-0.62
2023-02-11T16:28:49.570Z,-0.82
2023-02-11T16:33:54.845Z,-1.12
2023-02-11T16:38:59.061Z,-1.18
2023-02-11T16:44:03.310Z,-1.34
2023-02-11T16:49:40.012Z,-1.47
2023-02-11T16:54:44.055Z,-1.48
2023-02-11T16:59:48.101Z,-1.54
2023-02-11T17:04:56.955Z,-1.63
2023-02-11T17:10:01.113Z,-1.69
2023-02-11T17:15:07.526Z,-1.88
2023-02-11T17:20:15.981Z,-1.92
2023-02-11T17:25:20.053Z,-1.89
2023-02-11T17:30:24.182Z,-2.06
2023-02-11T17:35:29.634Z,-2.19
2023-02-11T17:40:33.656Z,-2.36
2023-02-11T17:45:42.289Z,-2.50
2023-02-11T17:50:47.604Z,-2.44
2023-02-11T17:55:51.974Z,-2.51
2023-02-11T18:00:59.680Z,-2.64
2023-02-11T18:06:08.687Z,-2.93
2023-02-11T18:11:13.376Z,-2.93
2023-02-11T18:16:17.602Z,-2.83
2023-02-11T18:21:23.862Z,-2.89
2023-02-11T18:26:28.312Z,-3.14
2023-02-11T18:31:32.981Z,-3.22
2023-02-11T18:36:38.525Z,-3.22
2023-02-11T18:41:46.798Z,-3.31
2023-02-11T18:46:51.314Z,-3.49
2023-02-11T18:51:58.706Z,-3.61
2023-02-11T18:57:02.725Z,-3.76
2023-02-11T19:02:07.386Z,-3.79
2023-02-11T19:07:13.047Z,-3.88
2023-02-11T19:12:17.086Z,-3.79
2023-02-11T19:17:20.995Z,-3.66
2023-02-11T19:22:26.574Z,-4.05
2023-02-11T19:27:30.549Z,-3.88
2023-02-11T19:32:34.542Z,-3.88
2023-02-11T19:37:39.985Z,-3.78
2023-02-11T19:42:44.237Z,-3.84
2023-02-11T19:47:48.693Z,-3.84
2023-02-11T19:52:54.987Z,-3.97
2023-02-11T19:57:58.907Z,-4.18
2023-02-11T20:03:02.962Z,-4.13
2023-02-11T20:08:08.692Z,-4.17
2023-02-11T20:13:12.560Z,-4.11
2023-02-11T20:18:16.447Z,-4.07
2023-02-11T20:23:21.751Z,-4.17
2023-02-11T20:28:25.801Z,-3.98
2023-02-11T20:33:31.300Z,-4.06
2023-02-11T20:38:37.414Z,-4.10
2023-02-11T20:43:41.796Z,-4.34
2023-02-11T20:48:46.292Z,-4.69
2023-02-11T20:53:52.755Z,-4.76
2023-02-11T20:58:59.632Z,-4.48
2023-02-11T21:04:06.302Z,-4.49
2023-02-11T21:09:15.094Z,-4.55
2023-02-11T21:14:20.082Z,-4.61
2023-02-11T21:19:23.960Z,-4.66
2023-02-11T21:24:30.838Z,-4.53
2023-02-11T21:29:40.457Z,-4.73
2023-02-11T21:34:49.673Z,-4.58
2023-02-11T21:39:54.971Z,-4.50
2023-02-11T21:44:58.917Z,-4.63
2023-02-11T21:50:02.826Z,-4.59
2023-02-11T21:55:09.515Z,-4.49
2023-02-11T22:00:14.914Z,-4.46
2023-02-11T22:05:18.952Z,-4.57
2023-02-11T22:10:24.635Z,-4.63
2023-02-11T22:15:28.618Z,-4.54
2023-02-11T22:20:32.514Z,-4.26
2023-02-11T22:25:39.244Z,-4.11
2023-02-11T22:30:43.207Z,-3.98
2023-02-11T22:35:47.227Z,-3.99
2023-02-11T22:40:52.609Z,-3.99
2023-02-11T22:45:57.094Z,-3.92
2023-02-11T22:51:05.770Z,-3.85
2023-02-11T22:56:15.323Z,-3.89
2023-02-11T23:01:19.940Z,-3.91
2023-02-11T23:06:24.285Z,-3.99
2023-02-11T23:11:31.369Z,-3.95
2023-02-11T23:16:36.193Z,-4.05
2023-02-11T23:21:40.650Z,-4.12
2023-02-11T23:26:47.042Z,-4.21
2023-02-11T23:31:51.144Z,-4.34
2023-02-11T23:36:56.426Z,-4.56
2023-02-11T23:42:01.768Z,-4.61
2023-02-11T23:47:06.468Z,-4.47
2023-02-11T23:52:10.411Z,-4.52
2023-02-11T23:57:15.750Z,-4.56
